createdAt,value
2023-05-05T00:00:16.424Z,21.1
2023-05-05T00:05:22.781Z,21.1
2023-05-05T00:10:17.783Z,21.1
2023-05-05T00:15:19.792Z,21
2023-05-05T00:20:20.821Z,21
2023-05-05T00:25:13.766Z,21
2023-05-05T00:30:18.004Z,21
2023-05-05T00:35:14.338Z,21
2023-05-05T00:40:16.498Z,21
2023-05-05T00:45:16.519Z,21
2023-05-05T00:50:18.974Z,21
2023-05-05T00:55:17.944Z,21
2023-05-05T01:00:15.846Z,21
2023-05-05T01:05:14.424Z,21
2023-05-05T01:10:34.473Z,21
2023-05-05T01:15:18.415Z,21
2023-05-05T01:20:20.450Z,21
2023-05-05T01:25:24.420Z,21
2023-05-05T01:30:18.430Z,20.9
2023-05-05T01:35:20.616Z,20.9
2023-05-05T01:40:18.552Z,20.9
2023-05-05T01:45:18.711Z,20.9
2023-05-05T01:50:16.792Z,20.9
2023-05-05T01:55:15.908Z,20.9
2023-05-05T02:00:14.050Z,20.9
2023-05-05T02:05:17.977Z,20.9
2023-05-05T02:10:13.937Z,20.9
2023-05-05T02:15:24.466Z,20.9
2023-05-05T02:20:15.353Z,20.9
2023-05-05T02:25:14.207Z,20.8
2023-05-05T02:30:22.330Z,20.8
2023-05-05T02:35:14.359Z,20.8
2023-05-05T02:40:18.639Z,20.8
2023-05-05T02:45:16.642Z,20.8
2023-05-05T02:50:17.247Z,20.8
2023-05-05T02:55:18.193Z,20.8
2023-05-05T03:00:14.407Z,20.8
2023-05-05T03:05:16.433Z,20.8
2023-05-05T03:10:14.982Z,20.8
2023-05-05T03:15:18.150Z,20.7
2023-05-05T03:20:21.598Z,20.7
2023-05-05T03:25:16.530Z,20.7
2023-05-05T03:30:16.456Z,20.7
2023-05-05T03:35:18.612Z,20.7
2023-05-05T03:40:18.617Z,20.7
2023-05-05T03:45:18.640Z,20.7
2023-05-05T03:50:22.636Z,20.7
2023-05-05T03:55:19.216Z,20.7
2023-05-05T04:00:16.368Z,20.7
2023-05-05T04:05:14.431Z,20.7
2023-05-05T04:10:20.639Z,20.7
2023-05-05T04:15:16.774Z,20.8
2023-05-05T04:20:13.942Z,20.8
2023-05-05T04:25:18.127Z,20.8
2023-05-05T04:30:14.021Z,20.9
2023-05-05T04:35:14.021Z,21
2023-05-05T04:40:14.117Z,21
2023-05-05T04:45:14.028Z,21
2023-05-05T04:50:14.428Z,21.1
2023-05-05T04:55:19.899Z,21.1
2023-05-05T05:00:15.955Z,21.1
2023-05-05T05:05:14.134Z,21.2
2023-05-05T05:10:24.320Z,21.2
2023-05-05T05:15:16.529Z,21.2
2023-05-05T05:20:22.396Z,21.2
2023-05-05T05:25:18.548Z,21.3
2023-05-05T05:30:16.447Z,21.2
2023-05-05T05:35:16.524Z,21.3
2023-05-05T05:40:17.203Z,21.2
2023-05-05T05:45:16.550Z,21.2
2023-05-05T05:50:16.353Z,21.2
2023-05-05T05:55:25.240Z,21.2
2023-05-05T06:00:20.432Z,21.3
2023-05-05T06:05:14.018Z,21.3
2023-05-05T06:10:49.850Z,21.2
2023-05-05T06:15:14.197Z,21.2
2023-05-05T06:20:16.042Z,21.2
2023-05-05T06:25:16.412Z,21.2
2023-05-05T06:30:18.524Z,21.2
2023-05-05T06:35:18.437Z,21.2
2023-05-05T06:40:20.349Z,21.2
2023-05-05T06:45:17.326Z,21.2
2023-05-05T06:50:20.258Z,21.2
2023-05-05T06:55:21.190Z,21.2
2023-05-05T07:00:20.535Z,21.2
2023-05-05T07:05:21.135Z,21.2
2023-05-05T07:10:22.507Z,21.2
2023-05-05T07:15:45.894Z,21.2
2023-05-05T07:20:16.109Z,21.2
2023-05-05T07:25:23.157Z,21.2
2023-05-05T07:30:38.611Z,21.2
2023-05-05T07:35:20.495Z,21.2
2023-05-05T07:40:23.364Z,21.2
2023-05-05T07:45:21.496Z,21.2
2023-05-05T07:50:20.851Z,21.2
2023-05-05T07:55:14.229Z,21.2
2023-05-05T08:00:16.357Z,21.2
2023-05-05T08:05:14.443Z,21.2
2023-05-05T08:10:14.142Z,21.2
2023-05-05T08:15:23.680Z,21.2
2023-05-05T08:20:15.686Z,21.1
2023-05-05T08:25:30.864Z,21.2
2023-05-05T08:30:15.945Z,21.2
2023-05-05T08:35:20.058Z,21.2
2023-05-05T08:40:22.307Z,21.2
2023-05-05T08:45:24.231Z,21.2
2023-05-05T08:50:16.410Z,21.2
2023-05-05T08:55:16.934Z,21.2
2023-05-05T09:00:16.154Z,21.2
2023-05-05T09:05:22.549Z,21.2
2023-05-05T09:10:14.422Z,21.2
2023-05-05T09:15:16.242Z,21.2
2023-05-05T09:20:20.642Z,21.2
2023-05-05T09:25:15.840Z,21.2
2023-05-05T09:30:14.107Z,21.2
2023-05-05T09:35:16.302Z,21.2
2023-05-05T09:40:18.370Z,21.2
2023-05-05T09:45:22.354Z,21.2
2023-05-05T09:50:20.512Z,21.2
2023-05-05T09:55:13.934Z,21.2
2023-05-05T10:00:18.749Z,21.2
2023-05-05T10:05:22.764Z,21.2
2023-05-05T10:10:18.328Z,21.3
2023-05-05T10:15:17.963Z,21.3
2023-05-05T10:20:17.700Z,21.3
2023-05-05T10:25:16.089Z,21.4
2023-05-05T10:30:18.533Z,21.4
2023-05-05T10:35:16.602Z,21.4
2023-05-05T10:40:20.504Z,21.5
2023-05-05T10:45:16.899Z,21.5
2023-05-05T10:50:19.974Z,21.5
2023-05-05T10:55:16.692Z,21.6
2023-05-05T11:00:20.136Z,21.6
2023-05-05T11:05:16.824Z,21.6
2023-05-05T11:10:18.196Z,21.6
2023-05-05T11:15:14.676Z,21.6
2023-05-05T11:20:18.430Z,21.6
2023-05-05T11:25:16.341Z,21.6
2023-05-05T11:30:22.970Z,21.6
2023-05-05T11:35:18.053Z,21.6
2023-05-05T11:40:18.342Z,21.7
2023-05-05T11:45:14.518Z,21.7
2023-05-05T11:50:26.836Z,21.8
2023-05-05T11:55:18.601Z,21.8
2023-05-05T12:00:18.564Z,21.8
2023-05-05T12:05:17.051Z,21.8
2023-05-05T12:10:16.530Z,21.8
2023-05-05T12:15:16.599Z,21.8
2023-05-05T12:20:20.648Z,21.9
2023-05-05T12:25:17.832Z,21.9
2023-05-05T12:30:18.346Z,21.9
2023-05-05T12:35:14.808Z,22
2023-05-05T12:40:17.824Z,22
2023-05-05T12:45:16.113Z,22.1
2023-05-05T12:50:16.403Z,22.1
2023-05-05T12:55:18.700Z,22.1
2023-05-05T13:00:23.088Z,22
2023-05-05T13:05:26.435Z,22.1
2023-05-05T13:10:14.463Z,22.1
2023-05-05T13:15:18.593Z,22.1
2023-05-05T13:20:17.318Z,22.1
2023-05-05T13:25:18.359Z,22.1
2023-05-05T13:30:30.627Z,22.1
2023-05-05T13:35:16.299Z,22.1
2023-05-05T13:40:18.468Z,22.1
2023-05-05T13:45:16.556Z,22.1
2023-05-05T13:50:16.491Z,22.1
2023-05-05T13:55:14.466Z,22.1
2023-05-05T14:00:20.734Z,22
2023-05-05T14:05:18.348Z,22
2023-05-05T14:10:18.454Z,22
2023-05-05T14:15:18.573Z,22
2023-05-05T14:20:16.625Z,22
2023-05-05T14:25:16.840Z,22
2023-05-05T14:30:16.091Z,22
2023-05-05T14:35:16.529Z,22
2023-05-05T14:40:21.752Z,22
2023-05-05T14:45:13.885Z,22
2023-05-05T14:50:14.258Z,22
2023-05-05T14:55:16.376Z,22
2023-05-05T15:00:22.842Z,22
2023-05-05T15:05:20.740Z,22.1
2023-05-05T15:10:21.802Z,22.1
2023-05-05T15:15:14.164Z,22.1
2023-05-05T15:20:19.405Z,22.2
2023-05-05T15:25:14.675Z,22.2
2023-05-05T15:30:16.910Z,22.2
2023-05-05T15:35:22.402Z,22.3
2023-05-05T15:40:22.715Z,22.3
2023-05-05T15:45:21.125Z,22.3
2023-05-05T15:50:18.627Z,22.3
2023-05-05T15:55:16.531Z,22.3
2023-05-05T16:00:14.847Z,22.4
2023-05-05T16:05:20.177Z,22.4
2023-05-05T16:10:20.493Z,22.4
2023-05-05T16:15:16.652Z,22.4
2023-05-05T16:20:18.642Z,22.5
2023-05-05T16:25:16.471Z,22.5
2023-05-05T16:30:16.548Z,22.6
2023-05-05T16:35:16.645Z,22.6
2023-05-05T16:40:14.627Z,22.6
2023-05-05T16:45:14.747Z,22.6
2023-05-05T16:50:22.523Z,22.6
2023-05-05T16:55:18.601Z,22.6
2023-05-05T17:00:16.964Z,22.6
2023-05-05T17:05:14.217Z,22.6
2023-05-05T17:10:20.663Z,22.6
2023-05-05T17:15:22.783Z,22.6
2023-05-05T17:20:21.925Z,22.6
2023-05-05T17:25:15.935Z,22.5
2023-05-05T17:30:24.754Z,22.5
2023-05-05T17:35:13.917Z,22.5
2023-05-05T17:40:15.904Z,22.5
2023-05-05T17:45:16.127Z,22.5
2023-05-05T17:50:26.633Z,22.5
2023-05-05T17:55:18.694Z,22.5
2023-05-05T18:00:16.173Z,22.5
2023-05-05T18:05:14.653Z,22.5
2023-05-05T18:10:17.952Z,22.5
2023-05-05T18:15:16.095Z,22.5
2023-05-05T18:20:18.538Z,22.4
2023-05-05T18:25:21.433Z,22.4
2023-05-05T18:30:16.615Z,22.4
2023-05-05T18:35:20.726Z,22.4
2023-05-05T18:40:20.744Z,22.4
2023-05-05T18:45:16.750Z,22.4
2023-05-05T18:50:14.171Z,22.5
2023-05-05T18:55:26.637Z,22.5
2023-05-05T19:00:25.653Z,22.5
2023-05-05T19:05:19.150Z,22.5
2023-05-05T19:10:18.374Z,22.5
2023-05-05T19:15:18.405Z,22.5
2023-05-05T19:20:16.545Z,22.5
2023-05-05T19:25:14.620Z,22.5
2023-05-05T19:30:18.824Z,22.5
2023-05-05T19:35:16.027Z,22.5
2023-05-05T19:40:14.391Z,22.5
2023-05-05T19:45:16.740Z,22.5
2023-05-05T19:50:20.029Z,22.5
2023-05-05T19:55:20.227Z,22.5
2023-05-05T20:00:14.556Z,22.4
2023-05-05T20:05:18.715Z,22.4
2023-05-05T20:10:21.203Z,22.4
2023-05-05T20:15:20.529Z,22.4
2023-05-05T20:20:25.269Z,22.4
2023-05-05T20:25:27.140Z,22.4
2023-05-05T20:30:20.234Z,22.3
2023-05-05T20:35:18.428Z,22.3
2023-05-05T20:40:23.151Z,22.2
2023-05-05T20:45:24.247Z,22.1
2023-05-05T20:50:16.450Z,22.1
2023-05-05T20:55:19.097Z,22.2
2023-05-05T21:00:24.148Z,22.2
2023-05-05T21:05:22.535Z,22.2
2023-05-05T21:10:20.739Z,22.2
2023-05-05T21:15:17.242Z,22.2
2023-05-05T21:20:20.449Z,22.2
2023-05-05T21:25:16.957Z,22.2
2023-05-05T21:30:22.310Z,22.2
2023-05-05T21:35:18.794Z,22.2
2023-05-05T21:40:20.054Z,22.2
2023-05-05T21:45:20.195Z,22.2
2023-05-05T21:50:22.430Z,22.1
2023-05-05T21:55:19.125Z,22.1
2023-05-05T22:00:21.031Z,22.1
2023-05-05T22:05:22.132Z,22.1
2023-05-05T22:10:24.145Z,22.1
2023-05-05T22:15:18.783Z,22.1
2023-05-05T22:20:18.236Z,22
2023-05-05T22:25:28.329Z,22
2023-05-05T22:30:24.925Z,22
2023-05-05T22:35:20.352Z,22
2023-05-05T22:40:26.518Z,22
2023-05-05T22:45:14.745Z,22
2023-05-05T22:50:18.054Z,22
2023-05-05T22:55:18.922Z,21.9
2023-05-05T23:00:14.235Z,21.9
2023-05-05T23:05:26.345Z,21.9
2023-05-05T23:10:16.406Z,21.9
2023-05-05T23:15:15.419Z,21.9
2023-05-05T23:20:16.427Z,21.8
2023-05-05T23:25:14.636Z,21.8
2023-05-05T23:30:15.063Z,21.8
2023-05-05T23:35:14.756Z,21.8
2023-05-05T23:40:28.361Z,21.8
2023-05-05T23:45:15.325Z,21.8
2023-05-05T23:50:14.639Z,21.7
2023-05-05T23:55:20.987Z,21.7
